Charlton, MA (01507)

7:42 PM EDT on September 23, 2014 (GMT -0400)
Prospect Hill Auburn | Change Station
CLOSE
Current Station
Personal Weather Station
Location: Auburn, MA
Elevation: 741 ft
Nearby Weather Stations

Elev 741 ft 42.18 °N, 71.86 °W | Updated 7 minutes ago

Clear
Clear
55.7 °F
Feels Like 55.7 °F
N
0.0
Wind Variable Wind from SW
Gusts 1.0 mph

Today
High -- | Low -- °F
--% Chance of Precip.
Yesterday
High -- | Low -- °F
Precip. -- in
6:36 AM 6:43 PM
Waning Crescent, 0% visible
Pressure 30.35 in
Visibility 10.0 miles
Clouds Clear
Dew Point 50 °F
Humidity 80%
Rainfall 0.00 in
Snow Depth Not available.
UV 0 out of 12
Pollen 3.50 out of 12
Air Quality Not available.
Flu Activity Not available.
METAR KORH 232254Z 00000KT 10SM CLR 16/09 A3033 RMK AO2 SLP277 T01560089

More Conditions Fewer Conditions

Pressure 30.35 in
Visibility 10.0 miles
Clouds Clear
Dew Point 50 °F
Humidity 80%
Rainfall 0.00 in
Snow Depth Not available.
UV 0 out of 12
Pollen 3.50 out of 12
Air Quality Not available.
Flu Activity Not available.
METAR KORH 232254Z 00000KT 10SM CLR 16/09 A3033 RMK AO2 SLP277 T01560089

More Conditions Fewer Conditions

10-Day Weather Forecast

Almanac

Astronomy

Sep. 23, 2014 Rise Set
Actual Time 6:36 AM EDT 6:43 PM EDT
Civil Twilight 6:08 AM EDT 7:11 PM EDT
Nautical Twilight 5:35 AM EDT 7:43 PM EDT
Astronomical Twilight 5:02 AM EDT 8:17 PM EDT
Moon 5:57 AM EDT 6:20 PM EDT
Length of Visible Light 13h 02m
Length of Day
12h 07m
Tomorrow will be 2m 49s shorter.
Waning Crescent, 0% of the Moon is Illuminated
Today
Waning Crescent
Sep 24
New
Oct 1
First Quarter
Oct 8
Full
Oct 15
Last Quarter

Today's Extremes

State Highs State Lows

Community

WunderPhotos

Upload Photos

1,755,821 photos uploaded!

WunderBlogs® & News

Nearby

Air Quality

  Air Quality AQ Index Pollutant
Yesterday Good
OZONE
Yesterday Good
PM2.5
Tuesday Good
PM2.5
Tuesday Good
OZONE
Wednesday Good
PM2.5
Wednesday Good
OZONE

Snow Depth

Station Depth Elevation
No new snow has been reported.

Earthquake Activity

City Distance Mag. Time & Date
No recent earthquake activity has been reported nearby.
Minimum magnitude displayed is 2.5.

Coastal Water Temperatures

Place Temperature
No Stations Reporting

Nearby Weather Stations